createdAt,value
2018-08-09T00:00:03.527Z,119
2018-08-09T00:05:03.537Z,119
2018-08-09T00:10:03.530Z,119
2018-08-09T00:15:03.534Z,119
2018-08-09T00:20:03.560Z,119
2018-08-09T00:25:03.541Z,119
2018-08-09T00:30:03.548Z,119
2018-08-09T00:35:03.564Z,119
2018-08-09T00:40:03.554Z,119
2018-08-09T00:45:03.549Z,119
2018-08-09T00:50:03.561Z,119
2018-08-09T00:55:03.550Z,119
2018-08-09T01:00:03.564Z,119
2018-08-09T01:05:03.571Z,119
2018-08-09T01:10:03.558Z,119
2018-08-09T01:15:03.564Z,119
2018-08-09T01:20:03.589Z,119
2018-08-09T01:25:03.576Z,119
2018-08-09T01:30:03.571Z,119
2018-08-09T01:35:03.589Z,119
2018-08-09T01:40:03.585Z,119
2018-08-09T01:45:03.592Z,119
2018-08-09T01:50:03.601Z,119
2018-08-09T01:55:03.586Z,119
2018-08-09T02:00:03.591Z,119
2018-08-09T02:05:03.808Z,119
2018-08-09T02:10:03.597Z,119
2018-08-09T02:15:03.595Z,119
2018-08-09T02:20:03.611Z,119
2018-08-09T02:25:03.600Z,119
2018-08-09T02:30:03.611Z,119
2018-08-09T02:35:03.628Z,119
2018-08-09T02:40:03.621Z,119
2018-08-09T02:45:03.619Z,119
2018-08-09T02:50:03.626Z,119
2018-08-09T02:55:03.620Z,119
2018-08-09T03:00:03.631Z,119
2018-08-09T03:05:03.641Z,119
2018-08-09T03:10:03.639Z,119
2018-08-09T03:15:03.634Z,119
2018-08-09T03:20:03.655Z,119
2018-08-09T03:25:03.641Z,119
2018-08-09T03:30:03.646Z,119
2018-08-09T03:35:03.668Z,119
2018-08-09T03:40:03.647Z,119
2018-08-09T03:45:03.647Z,119
2018-08-09T03:50:03.670Z,119
2018-08-09T03:55:03.648Z,119
2018-08-09T04:00:03.662Z,119
2018-08-09T04:05:03.673Z,119
2018-08-09T04:10:03.668Z,119
2018-08-09T04:15:03.667Z,119
2018-08-09T04:20:03.672Z,119
2018-08-09T04:25:03.669Z,119
2018-08-09T04:30:03.675Z,119
2018-08-09T04:35:03.676Z,119
2018-08-09T04:40:03.679Z,119
2018-08-09T04:45:03.684Z,119
2018-08-09T04:50:03.694Z,119
2018-08-09T04:55:03.691Z,119
2018-08-09T05:00:03.688Z,119
2018-08-09T05:05:03.696Z,119
2018-08-09T05:10:03.695Z,119
2018-08-09T05:15:03.698Z,119
2018-08-09T05:20:03.724Z,119
2018-08-09T05:25:03.703Z,119
2018-08-09T05:30:03.722Z,119
2018-08-09T05:35:03.730Z,119
2018-08-09T05:40:03.713Z,119
2018-08-09T05:45:03.721Z,119
2018-08-09T05:50:03.725Z,119
2018-08-09T05:55:03.739Z,119
2018-08-09T06:00:03.746Z,119
2018-08-09T06:05:03.782Z,119
2018-08-09T06:10:03.730Z,119
2018-08-09T06:15:03.749Z,119
2018-08-09T06:20:03.737Z,119
2018-08-09T06:25:03.731Z,119
2018-08-09T06:30:03.757Z,119
2018-08-09T06:35:03.757Z,119
2018-08-09T06:40:03.751Z,119
2018-08-09T06:45:03.764Z,119
2018-08-09T06:50:03.771Z,119
2018-08-09T06:55:03.771Z,119
2018-08-09T07:00:03.842Z,119
2018-08-09T07:05:03.765Z,119
2018-08-09T07:10:03.769Z,119
2018-08-09T07:15:03.793Z,119
2018-08-09T07:20:04.031Z,119
2018-08-09T07:25:03.779Z,119
2018-08-09T07:30:03.769Z,119
2018-08-09T07:35:03.791Z,119
2018-08-09T07:40:03.773Z,119
2018-08-09T07:45:03.774Z,119
2018-08-09T07:50:03.786Z,119
2018-08-09T07:55:03.784Z,119
2018-08-09T08:00:03.791Z,119
2018-08-09T08:05:03.799Z,119
2018-08-09T08:10:03.788Z,119
2018-08-09T08:15:03.811Z,119
2018-08-09T08:20:03.813Z,119
2018-08-09T08:25:03.799Z,119
2018-08-09T08:30:03.800Z,119
2018-08-09T08:35:03.813Z,119
2018-08-09T08:40:03.811Z,119
2018-08-09T08:45:03.813Z,119
2018-08-09T08:50:03.831Z,119
2018-08-09T08:55:03.872Z,111.74
2018-08-09T09:00:03.815Z,86.05
2018-08-09T09:05:03.950Z,73.65
2018-08-09T09:10:03.826Z,70.37
2018-08-09T09:15:03.833Z,56.53
2018-08-09T09:20:03.852Z,51.78
2018-08-09T09:25:03.833Z,51.29
2018-08-09T09:30:03.837Z,35.1
2018-08-09T09:35:03.959Z,33.72
2018-08-09T09:40:03.837Z,31
2018-08-09T09:45:03.839Z,31.49
2018-08-09T09:50:03.856Z,35.91
2018-08-09T09:55:03.856Z,36.22
2018-08-09T10:00:03.860Z,31.69
2018-08-09T10:05:03.871Z,40.58
2018-08-09T10:10:03.856Z,27.82
2018-08-09T10:15:03.865Z,20.26
2018-08-09T10:20:03.879Z,16.66
2018-08-09T10:25:03.867Z,19.88
2018-08-09T10:30:03.867Z,20.13
2018-08-09T10:35:03.874Z,20.49
2018-08-09T10:40:03.876Z,19.83
2018-08-09T10:45:03.875Z,7.9
2018-08-09T10:50:03.899Z,9.16
2018-08-09T10:55:03.888Z,-0.43
2018-08-09T11:00:03.883Z,-2.7
2018-08-09T11:05:03.898Z,2.63
2018-08-09T11:10:03.891Z,3.36
2018-08-09T11:15:03.953Z,-2.93
2018-08-09T11:20:03.900Z,-5.74
2018-08-09T11:25:03.896Z,-6
2018-08-09T11:30:03.901Z,-6
2018-08-09T11:35:03.918Z,-6
2018-08-09T11:40:03.909Z,-6
2018-08-09T11:45:03.907Z,-6
2018-08-09T11:50:03.916Z,-6
2018-08-09T11:55:03.938Z,-6
2018-08-09T12:00:03.921Z,-6
2018-08-09T12:05:03.932Z,-6
2018-08-09T12:10:03.919Z,-6
2018-08-09T12:15:04.119Z,-6
2018-08-09T12:20:03.936Z,-6
2018-08-09T12:25:03.926Z,-6
2018-08-09T12:30:03.957Z,-6
2018-08-09T12:35:03.936Z,-6
2018-08-09T12:40:03.941Z,-6
2018-08-09T12:45:03.954Z,-6
2018-08-09T12:50:03.943Z,-6
2018-08-09T12:55:03.940Z,-6
2018-08-09T13:00:04.205Z,-6
2018-08-09T13:05:03.961Z,-6
2018-08-09T13:10:03.954Z,-6
2018-08-09T13:15:03.951Z,-6
2018-08-09T13:20:03.964Z,-6
2018-08-09T13:25:03.966Z,-6
2018-08-09T13:30:03.962Z,-6
2018-08-09T13:35:03.962Z,-6
2018-08-09T13:40:03.970Z,-6
2018-08-09T13:45:03.975Z,-6
2018-08-09T13:50:03.973Z,-6
2018-08-09T13:55:03.987Z,-6
2018-08-09T14:00:03.975Z,-6
2018-08-09T14:05:03.986Z,-6
2018-08-09T14:10:03.999Z,-6
2018-08-09T14:15:03.984Z,-6
2018-08-09T14:20:03.989Z,-6
2018-08-09T14:25:04.096Z,-6
2018-08-09T14:30:03.993Z,-6
2018-08-09T14:35:03.995Z,-6
2018-08-09T14:40:04.001Z,-6
2018-08-09T14:45:04.008Z,-6
2018-08-09T14:50:04.009Z,-6
2018-08-09T14:55:04.009Z,1.28
2018-08-09T15:00:04.013Z,6.38
2018-08-09T15:05:04.020Z,9.64
2018-08-09T15:10:04.023Z,2.65
2018-08-09T15:15:04.016Z,2.26
2018-08-09T15:20:04.044Z,6.64
2018-08-09T15:25:04.026Z,8.61
2018-08-09T15:30:04.033Z,35.98
2018-08-09T15:35:04.036Z,119
2018-08-09T15:40:04.031Z,119
2018-08-09T15:45:04.035Z,119
2018-08-09T15:50:06.544Z,119
2018-08-09T15:55:04.040Z,119
2018-08-09T16:00:04.045Z,119
2018-08-09T16:05:04.045Z,119
2018-08-09T16:10:04.122Z,119
2018-08-09T16:15:04.058Z,119
2018-08-09T16:20:04.053Z,119
2018-08-09T16:25:04.061Z,119
2018-08-09T16:30:04.061Z,119
2018-08-09T16:35:04.065Z,119
2018-08-09T16:40:04.080Z,119
2018-08-09T16:45:04.064Z,119
2018-08-09T16:50:04.066Z,119
2018-08-09T16:55:04.077Z,119
2018-08-09T17:00:04.076Z,119
2018-08-09T17:05:04.081Z,119
2018-08-09T17:10:04.088Z,119
2018-08-09T17:15:04.089Z,119
2018-08-09T17:20:04.088Z,119
2018-08-09T17:25:04.084Z,119
2018-08-09T17:30:04.096Z,119
2018-08-09T17:35:04.097Z,119
2018-08-09T17:40:04.108Z,119
2018-08-09T17:45:04.098Z,119
2018-08-09T17:50:04.105Z,119
2018-08-09T17:55:04.104Z,119
2018-08-09T18:00:04.110Z,119
2018-08-09T18:05:04.222Z,119
2018-08-09T18:10:04.115Z,119
2018-08-09T18:15:04.118Z,119
2018-08-09T18:20:04.125Z,119
2018-08-09T18:25:04.117Z,119
2018-08-09T18:30:04.125Z,119
2018-08-09T18:35:04.126Z,119
2018-08-09T18:40:04.128Z,119
2018-08-09T18:45:04.128Z,119
2018-08-09T18:50:04.136Z,119
2018-08-09T18:55:04.132Z,119
2018-08-09T19:00:04.140Z,119
2018-08-09T19:05:04.208Z,119
2018-08-09T19:10:04.146Z,119
2018-08-09T19:15:04.184Z,119
2018-08-09T19:20:04.145Z,119
2018-08-09T19:25:04.151Z,119
2018-08-09T19:30:04.160Z,119
2018-08-09T19:35:04.163Z,119
2018-08-09T19:40:04.159Z,119
2018-08-09T19:45:04.158Z,119
2018-08-09T19:50:04.174Z,119
2018-08-09T19:55:04.166Z,119
2018-08-09T20:00:04.179Z,119
2018-08-09T20:05:04.178Z,119
2018-08-09T20:10:04.178Z,119
2018-08-09T20:15:04.177Z,119
2018-08-09T20:20:04.185Z,119
2018-08-09T20:25:04.183Z,119
2018-08-09T20:30:04.204Z,119
2018-08-09T20:35:04.237Z,119
2018-08-09T20:40:04.195Z,119
2018-08-09T20:45:04.193Z,119
2018-08-09T20:50:04.249Z,119
2018-08-09T20:55:04.285Z,119
2018-08-09T21:00:04.203Z,119
2018-08-09T21:05:04.211Z,119
2018-08-09T21:10:04.225Z,119
2018-08-09T21:15:04.217Z,119
2018-08-09T21:20:04.214Z,119
2018-08-09T21:25:04.217Z,119
2018-08-09T21:30:04.218Z,119
2018-08-09T21:35:04.230Z,119
2018-08-09T21:40:04.224Z,119
2018-08-09T21:45:04.228Z,119
2018-08-09T21:50:04.231Z,119
2018-08-09T21:55:04.236Z,119
2018-08-09T22:00:04.237Z,119
2018-08-09T22:05:04.238Z,119
2018-08-09T22:10:04.246Z,119
2018-08-09T22:15:04.249Z,119
2018-08-09T22:20:04.253Z,119
2018-08-09T22:25:04.253Z,119
2018-08-09T22:30:04.251Z,119
2018-08-09T22:35:04.257Z,119
2018-08-09T22:40:04.262Z,119
2018-08-09T22:45:04.259Z,119
2018-08-09T22:50:04.270Z,119
2018-08-09T22:55:04.266Z,119
2018-08-09T23:00:04.264Z,119
2018-08-09T23:05:04.280Z,119
2018-08-09T23:20:04.306Z,119
2018-08-09T23:25:04.283Z,119
2018-08-09T23:30:04.285Z,119
2018-08-09T23:35:04.295Z,119
2018-08-09T23:40:04.297Z,119
2018-08-09T23:45:04.307Z,119
2018-08-09T23:50:04.320Z,119
2018-08-09T23:55:04.297Z,119
